METAR Data
IDs: Format: Raw Decoded Include TAF

Data at: 1305 UTC 24 May 2022

METAR for:LFQA (Reims/Prunay Aprt, GE, FR)
Text:LFQA 241300Z AUTO 22009KT 180V270 CAVOK 17/08 Q1009
Temperature: 17.0°C ( 63°F)
Dewpoint: 8.0°C ( 46°F) [RH = 55%]
Pressure (altimeter):29.79 inches Hg (1009.0 mb)
Winds:from the SW (220 degrees) at 10 MPH (9 knots; 4.6 m/s)
Visibility:6 or more sm (10+ km)
Ceiling:ceiling and visibility are OK
Clouds:unknown

TAF for:LFQA (Reims/Prunay Aprt, GE, FR)
Text:No data found